»·PEaware :: UAL1935 KJAC-KDEN

UAL1935 :: KJAC-KDEN

FLIGHT INFORMATION

Flight Status: Arrived
Operator:
United Airlines
More flights by this operator :: More flights under this callsign
Pilot: Josh T. (20631)
Aircraft: AIRBUS A320
(A320)
More flights by this aircraft type
Origin: KJAC Jackson Hole
United States
Destination: KDEN Denver Intl
United States
More flights between these airports :: More routes between these airports
Route: +ALPIN2 KICNE OCS GWEDO KAILE2
File this flight plan on PilotEdge
Remarks:
Altitude:
(Current/Filed)
31,000ft
Speed:
(Current/Filed)
450kts
Departed: 19-Jan-20 05:50 PM
Arrived: 19-Jan-20 06:49 PM
Distance/Time
Traveled:
353nm/0:59
Distance/Time
To Go:
Arrived

Flight Plot

Page will automatically refresh every two minutes.

Flight plan parsing failed; only flown route is shown


Map Options




Map Legend


Flown Route
Filed Route
Departure Airport
Arrival Airport
Navaid (VOR, NDB)
Fix

Horizontal Profiles

Position Reports

Time Latitude Longitude Heading Altitude Ground
Speed
19-Jan-20 17:04 43.602251 -110.737692 109 6465ft 0kts
19-Jan-20 17:05 43.602251 -110.737692 109 6465ft 0kts
19-Jan-20 17:06 43.602251 -110.737692 109 6465ft 0kts
19-Jan-20 17:07 43.602251 -110.737692 109 6465ft 0kts
19-Jan-20 17:08 43.602251 -110.737692 109 6465ft 0kts
19-Jan-20 17:09 43.602251 -110.737692 109 6465ft 0kts
19-Jan-20 17:10 43.602251 -110.737692 109 6465ft 0kts
19-Jan-20 17:11 43.602251 -110.737692 109 6465ft 0kts
19-Jan-20 17:12 43.602251 -110.737692 109 6465ft 0kts
19-Jan-20 17:13 43.602251 -110.737692 109 6465ft 0kts
19-Jan-20 17:14 43.602251 -110.737692 109 6465ft 0kts
19-Jan-20 17:15 43.602251 -110.737692 109 6465ft 0kts
19-Jan-20 17:16 43.602251 -110.737692 109 6465ft 0kts
19-Jan-20 17:17 43.602251 -110.737692 109 6465ft 0kts
19-Jan-20 17:18 43.602251 -110.737692 109 6465ft 0kts
19-Jan-20 17:19 43.602251 -110.737692 109 6465ft 0kts
19-Jan-20 17:20 43.602251 -110.737692 109 6465ft 0kts
19-Jan-20 17:21 43.602251 -110.737692 109 6465ft 0kts
19-Jan-20 17:22 43.602251 -110.737692 109 6465ft 0kts
19-Jan-20 17:23 43.602251 -110.737692 109 6465ft 0kts
19-Jan-20 17:24 43.602251 -110.737692 109 6465ft 0kts
19-Jan-20 17:25 43.602251 -110.737692 109 6465ft 0kts
19-Jan-20 17:26 43.602251 -110.737692 109 6465ft 0kts
19-Jan-20 17:27 43.602251 -110.737692 109 6465ft 0kts
19-Jan-20 17:28 43.602251 -110.737692 109 6465ft 0kts
19-Jan-20 17:29 43.602251 -110.737692 109 6465ft 0kts
19-Jan-20 17:30 43.602251 -110.737692 109 6465ft 0kts
19-Jan-20 17:31 43.602251 -110.737692 109 6465ft 0kts
19-Jan-20 17:32 43.602316 -110.738122 85 6465ft 2kts
19-Jan-20 17:33 43.602070 -110.738716 19 6465ft 0kts
19-Jan-20 17:34 43.602070 -110.738716 19 6465ft 0kts
19-Jan-20 17:35 43.602070 -110.738716 19 6465ft 0kts
19-Jan-20 17:36 43.602070 -110.738716 19 6465ft 0kts
19-Jan-20 17:37 43.602071 -110.738716 19 6465ft 0kts
19-Jan-20 17:38 43.602071 -110.738716 19 6465ft 0kts
19-Jan-20 17:39 43.602071 -110.738716 19 6465ft 0kts
19-Jan-20 17:40 43.602071 -110.738716 19 6465ft 0kts
19-Jan-20 17:41 43.602072 -110.738715 19 6465ft 0kts
19-Jan-20 17:42 43.602072 -110.738715 19 6465ft 0kts
19-Jan-20 17:43 43.603327 -110.738103 19 6465ft 19kts
19-Jan-20 17:44 43.609897 -110.734907 19 6465ft 29kts
19-Jan-20 17:45 43.614869 -110.732641 346 6465ft 0kts
19-Jan-20 17:46 43.614869 -110.732642 346 6465ft 0kts
19-Jan-20 17:47 43.615109 -110.733982 196 6465ft 0kts
19-Jan-20 17:48 43.615109 -110.733982 196 6465ft 0kts
19-Jan-20 17:49 43.609144 -110.736864 198 6465ft 118kts
19-Jan-20 17:50 43.578526 -110.753325 205 7903ft 172kts
19-Jan-20 17:51 43.524029 -110.789118 205 9537ft 256kts
19-Jan-20 17:52 43.450798 -110.837028 206 11230ft 324kts
19-Jan-20 17:53 43.363127 -110.894211 207 13041ft 365kts
19-Jan-20 17:54 43.269176 -110.954983 206 15362ft 381kts
19-Jan-20 17:55 43.168330 -110.929416 136 17448ft 406kts
19-Jan-20 17:56 43.085526 -110.819907 138 19366ft 421kts
19-Jan-20 17:57 42.996995 -110.711303 137 21183ft 435kts
19-Jan-20 17:58 42.906185 -110.598044 138 22802ft 447kts
19-Jan-20 17:59 42.812693 -110.482599 138 24275ft 458kts
19-Jan-20 18:00 42.717094 -110.364944 137 25635ft 468kts
19-Jan-20 18:01 42.619507 -110.245413 137 26868ft 478kts
19-Jan-20 18:02 42.519738 -110.123665 137 28051ft 486kts
19-Jan-20 18:03 42.419013 -110.001404 137 29454ft 486kts
19-Jan-20 18:04 42.317977 -109.879245 138 30732ft 488kts
19-Jan-20 18:05 42.215965 -109.756473 138 31556ft 501kts
19-Jan-20 18:06 42.108987 -109.628426 138 31546ft 525kts
19-Jan-20 18:07 42.002144 -109.500849 138 32276ft 488kts
19-Jan-20 18:08 41.900130 -109.379765 139 32478ft 486kts
19-Jan-20 18:09 41.798222 -109.259598 138 31558ft 489kts
19-Jan-20 18:10 41.695889 -109.139168 138 31550ft 490kts
19-Jan-20 18:11 41.595765 -109.015676 126 31527ft 491kts
19-Jan-20 18:12 41.540679 -108.851829 107 31497ft 484kts
19-Jan-20 18:13 41.489625 -108.685571 109 31576ft 484kts
19-Jan-20 18:14 41.438819 -108.519033 109 31525ft 484kts
19-Jan-20 18:15 41.387484 -108.353581 109 31518ft 484kts
19-Jan-20 18:16 41.334098 -108.189308 113 31523ft 485kts
19-Jan-20 18:17 41.271151 -108.029757 114 31528ft 487kts
19-Jan-20 18:18 41.208763 -107.870307 114 31621ft 486kts
19-Jan-20 18:19 41.145861 -107.711291 114 31554ft 486kts
19-Jan-20 18:20 41.082946 -107.552844 114 31529ft 486kts
19-Jan-20 18:21 41.019642 -107.394366 115 31558ft 486kts
19-Jan-20 18:22 40.956150 -107.236287 114 31576ft 486kts
19-Jan-20 18:23 40.892433 -107.078422 115 31564ft 487kts
19-Jan-20 18:24 40.828300 -106.920447 115 31549ft 488kts
19-Jan-20 18:25 40.764158 -106.763185 115 31560ft 487kts
19-Jan-20 18:26 40.699708 -106.606075 115 31566ft 486kts
19-Jan-20 18:27 40.635199 -106.449815 115 31414ft 486kts
19-Jan-20 18:28 40.570883 -106.294612 115 28943ft 477kts
19-Jan-20 18:29 40.508404 -106.144445 115 26765ft 460kts
19-Jan-20 18:30 40.448522 -105.999646 110 24706ft 441kts
19-Jan-20 18:31 40.422105 -105.848013 95 22721ft 417kts
19-Jan-20 18:32 40.398844 -105.701147 97 20770ft 403kts
19-Jan-20 18:33 40.376757 -105.562089 96 19602ft 369kts
19-Jan-20 18:34 40.356301 -105.433888 95 18169ft 355kts
19-Jan-20 18:35 40.339177 -105.308312 95 16658ft 344kts
19-Jan-20 18:36 40.322343 -105.186395 96 15209ft 334kts
19-Jan-20 18:37 40.305950 -105.068178 97 13722ft 326kts
19-Jan-20 18:38 40.289901 -104.953714 97 12970ft 306kts
19-Jan-20 18:39 40.274861 -104.851113 99 12049ft 277kts
19-Jan-20 18:40 40.259038 -104.755456 111 10790ft 258kts
19-Jan-20 18:41 40.215703 -104.688425 157 10283ft 249kts
19-Jan-20 18:42 40.147989 -104.684324 181 9965ft 245kts
19-Jan-20 18:43 40.080678 -104.684792 180 8835ft 239kts
19-Jan-20 18:44 40.016556 -104.685413 180 7742ft 218kts
19-Jan-20 18:45 39.961703 -104.686063 179 6745ft 186kts
19-Jan-20 18:46 39.916086 -104.686595 179 5848ft 140kts
19-Jan-20 18:48 39.882082 -104.686988 180 5445ft 67kts
19-Jan-20 18:49 39.875781 -104.685233 150 5445ft 0kts
19-Jan-20 18:50 39.875778 -104.685230 150 5445ft 0kts
19-Jan-20 18:51 39.875024 -104.684159 111 5445ft 10kts
19-Jan-20 18:52 39.870232 -104.683832 179 5445ft 24kts
19-Jan-20 18:53 39.863542 -104.683906 179 5445ft 23kts
19-Jan-20 18:54 39.860356 -104.682521 90 5445ft 15kts
19-Jan-20 18:55 39.860727 -104.675294 91 5445ft 22kts
19-Jan-20 18:56 39.860554 -104.669132 156 5445ft 6kts
19-Jan-20 18:57 39.859418 -104.669119 180 5445ft 0kts
19-Jan-20 18:58 39.859417 -104.669119 180 5445ft 0kts
19-Jan-20 18:59 39.859417 -104.669119 180 5445ft 0kts

Navigation Log

Ident Type
Flight plan parsing failed, navigation log unavailable